sensor_id;sensor_type;location;lat;lon;timestamp;temperature;humidity
13697;DHT22;6920;50.080;8.226;2022-08-19T00:04:28;22.20;99.90
13697;DHT22;6920;50.080;8.226;2022-08-19T00:11:57;22.20;99.90
13697;DHT22;6920;50.080;8.226;2022-08-19T00:29:24;22.20;99.90
13697;DHT22;6920;50.080;8.226;2022-08-19T00:31:52;22.20;99.90
13697;DHT22;6920;50.080;8.226;2022-08-19T00:39:21;22.00;99.90
13697;DHT22;6920;50.080;8.226;2022-08-19T00:41:51;22.10;99.90
13697;DHT22;6920;50.080;8.226;2022-08-19T00:44:20;22.10;99.90
13697;DHT22;6920;50.080;8.226;2022-08-19T00:46:56;22.00;99.90
13697;DHT22;6920;50.080;8.226;2022-08-19T00:57:03;22.00;99.90
13697;DHT22;6920;50.080;8.226;2022-08-19T00:59:35;22.00;99.90
13697;DHT22;6920;50.080;8.226;2022-08-19T01:04:35;21.90;99.90
13697;DHT22;6920;50.080;8.226;2022-08-19T01:07:04;21.90;99.90
13697;DHT22;6920;50.080;8.226;2022-08-19T01:09:33;21.90;99.90
13697;DHT22;6920;50.080;8.226;2022-08-19T01:12:02;21.80;99.90
13697;DHT22;6920;50.080;8.226;2022-08-19T01:19:34;21.80;99.90
13697;DHT22;6920;50.080;8.226;2022-08-19T01:22:12;21.80;99.90
13697;DHT22;6920;50.080;8.226;2022-08-19T01:24:42;21.80;99.90
13697;DHT22;6920;50.080;8.226;2022-08-19T01:29:42;21.80;99.90
13697;DHT22;6920;50.080;8.226;2022-08-19T01:32:13;21.80;99.90
13697;DHT22;6920;50.080;8.226;2022-08-19T01:37:11;21.80;99.90
13697;DHT22;6920;50.080;8.226;2022-08-19T01:39:39;21.80;99.90
13697;DHT22;6920;50.080;8.226;2022-08-19T01:42:09;21.70;99.90
13697;DHT22;6920;50.080;8.226;2022-08-19T01:44:38;21.70;99.90
13697;DHT22;6920;50.080;8.226;2022-08-19T01:47:08;21.70;99.90
13697;DHT22;6920;50.080;8.226;2022-08-19T01:49:37;21.70;99.90
13697;DHT22;6920;50.080;8.226;2022-08-19T01:54:33;21.60;99.90
13697;DHT22;6920;50.080;8.226;2022-08-19T01:59:33;21.60;99.90
13697;DHT22;6920;50.080;8.226;2022-08-19T02:06:58;21.70;99.90
13697;DHT22;6920;50.080;8.226;2022-08-19T02:09:27;21.60;99.90
13697;DHT22;6920;50.080;8.226;2022-08-19T02:14:22;21.60;99.90
13697;DHT22;6920;50.080;8.226;2022-08-19T02:16:50;21.60;99.90
13697;DHT22;6920;50.080;8.226;2022-08-19T02:19:17;21.50;99.90
13697;DHT22;6920;50.080;8.226;2022-08-19T02:21:44;21.50;99.90
13697;DHT22;6920;50.080;8.226;2022-08-19T02:24:15;21.50;99.90
13697;DHT22;6920;50.080;8.226;2022-08-19T02:26:43;21.50;99.90
13697;DHT22;6920;50.080;8.226;2022-08-19T02:29:11;21.40;99.90
13697;DHT22;6920;50.080;8.226;2022-08-19T02:31:38;21.40;99.90
13697;DHT22;6920;50.080;8.226;2022-08-19T02:34:08;21.40;99.90
13697;DHT22;6920;50.080;8.226;2022-08-19T02:46:32;21.10;99.90
13697;DHT22;6920;50.080;8.226;2022-08-19T02:49:02;21.10;99.90
13697;DHT22;6920;50.080;8.226;2022-08-19T02:51:40;21.00;99.90
13697;DHT22;6920;50.080;8.226;2022-08-19T02:54:09;21.00;99.90
13697;DHT22;6920;50.080;8.226;2022-08-19T03:01:39;20.90;99.90
13697;DHT22;6920;50.080;8.226;2022-08-19T03:11:42;20.90;99.90
13697;DHT22;6920;50.080;8.226;2022-08-19T03:14:11;20.90;99.90
13697;DHT22;6920;50.080;8.226;2022-08-19T03:24:11;20.80;99.90
13697;DHT22;6920;50.080;8.226;2022-08-19T03:29:12;20.80;99.90
13697;DHT22;6920;50.080;8.226;2022-08-19T03:31:41;20.70;99.90
13697;DHT22;6920;50.080;8.226;2022-08-19T03:34:10;20.70;99.90
13697;DHT22;6920;50.080;8.226;2022-08-19T03:39:10;20.60;99.90
13697;DHT22;6920;50.080;8.226;2022-08-19T03:41:40;20.60;99.90
13697;DHT22;6920;50.080;8.226;2022-08-19T03:51:35;20.50;99.90
13697;DHT22;6920;50.080;8.226;2022-08-19T04:04:01;20.50;99.90
13697;DHT22;6920;50.080;8.226;2022-08-19T04:06:31;20.40;99.90
13697;DHT22;6920;50.080;8.226;2022-08-19T04:09:00;20.50;99.90
13697;DHT22;6920;50.080;8.226;2022-08-19T04:14:10;20.50;99.90
13697;DHT22;6920;50.080;8.226;2022-08-19T04:19:06;20.40;99.90
13697;DHT22;6920;50.080;8.226;2022-08-19T04:26:35;20.30;99.90
13697;DHT22;6920;50.080;8.226;2022-08-19T04:29:06;20.20;99.90
13697;DHT22;6920;50.080;8.226;2022-08-19T04:34:07;20.30;99.90
13697;DHT22;6920;50.080;8.226;2022-08-19T04:41:41;20.30;99.90
13697;DHT22;6920;50.080;8.226;2022-08-19T04:46:57;20.30;99.90
13697;DHT22;6920;50.080;8.226;2022-08-19T04:49:26;20.30;99.90
13697;DHT22;6920;50.080;8.226;2022-08-19T04:51:54;20.30;99.90
13697;DHT22;6920;50.080;8.226;2022-08-19T04:54:24;20.30;99.90
13697;DHT22;6920;50.080;8.226;2022-08-19T04:56:53;20.30;99.90
13697;DHT22;6920;50.080;8.226;2022-08-19T05:09:13;20.40;99.90
13697;DHT22;6920;50.080;8.226;2022-08-19T05:14:10;20.40;99.90
13697;DHT22;6920;50.080;8.226;2022-08-19T05:24:36;20.50;99.90
13697;DHT22;6920;50.080;8.226;2022-08-19T05:49:32;21.00;99.90
13697;DHT22;6920;50.080;8.226;2022-08-19T05:52:04;21.20;99.90
13697;DHT22;6920;50.080;8.226;2022-08-19T05:57:07;21.30;99.90
13697;DHT22;6920;50.080;8.226;2022-08-19T06:02:08;21.50;99.90
13697;DHT22;6920;50.080;8.226;2022-08-19T06:04:35;21.70;99.90
13697;DHT22;6920;50.080;8.226;2022-08-19T06:07:02;21.70;99.90
13697;DHT22;6920;50.080;8.226;2022-08-19T06:12:09;21.60;99.90
13697;DHT22;6920;50.080;8.226;2022-08-19T06:19:37;21.80;99.90
13697;DHT22;6920;50.080;8.226;2022-08-19T06:22:10;21.90;99.90
13697;DHT22;6920;50.080;8.226;2022-08-19T06:24:38;21.90;99.90
13697;DHT22;6920;50.080;8.226;2022-08-19T06:38:06;22.00;99.90
13697;DHT22;6920;50.080;8.226;2022-08-19T06:43:04;22.10;99.90
13697;DHT22;6920;50.080;8.226;2022-08-19T06:55:32;22.70;99.90
13697;DHT22;6920;50.080;8.226;2022-08-19T07:00:32;22.70;99.90
13697;DHT22;6920;50.080;8.226;2022-08-19T07:03:03;22.70;99.90
13697;DHT22;6920;50.080;8.226;2022-08-19T07:05:38;23.00;99.90
13697;DHT22;6920;50.080;8.226;2022-08-19T07:08:05;23.10;99.90
13697;DHT22;6920;50.080;8.226;2022-08-19T07:10:33;23.30;99.90
13697;DHT22;6920;50.080;8.226;2022-08-19T07:13:04;23.50;99.90
13697;DHT22;6920;50.080;8.226;2022-08-19T07:15:36;23.40;99.90
13697;DHT22;6920;50.080;8.226;2022-08-19T07:18:06;23.60;99.90
13697;DHT22;6920;50.080;8.226;2022-08-19T07:20:35;23.70;99.90
13697;DHT22;6920;50.080;8.226;2022-08-19T07:23:06;24.00;99.90
13697;DHT22;6920;50.080;8.226;2022-08-19T07:25:36;24.00;99.90
13697;DHT22;6920;50.080;8.226;2022-08-19T07:28:04;23.90;99.90
13697;DHT22;6920;50.080;8.226;2022-08-19T07:30:37;24.00;99.90
13697;DHT22;6920;50.080;8.226;2022-08-19T07:33:07;23.90;99.90
13697;DHT22;6920;50.080;8.226;2022-08-19T07:35:37;24.10;99.90
13697;DHT22;6920;50.080;8.226;2022-08-19T07:38:04;23.90;99.90
13697;DHT22;6920;50.080;8.226;2022-08-19T07:40:33;24.00;99.90
13697;DHT22;6920;50.080;8.226;2022-08-19T07:43:00;24.40;99.90
13697;DHT22;6920;50.080;8.226;2022-08-19T07:47:56;24.80;99.90
13697;DHT22;6920;50.080;8.226;2022-08-19T07:50:25;25.00;99.90
13697;DHT22;6920;50.080;8.226;2022-08-19T07:52:55;25.30;99.90
13697;DHT22;6920;50.080;8.226;2022-08-19T07:55:25;25.30;99.90
13697;DHT22;6920;50.080;8.226;2022-08-19T07:57:53;25.50;99.90
13697;DHT22;6920;50.080;8.226;2022-08-19T08:00:20;25.60;99.90
13697;DHT22;6920;50.080;8.226;2022-08-19T08:02:47;25.50;99.90
13697;DHT22;6920;50.080;8.226;2022-08-19T08:05:15;25.50;99.90
13697;DHT22;6920;50.080;8.226;2022-08-19T08:08:02;25.40;99.90
13697;DHT22;6920;50.080;8.226;2022-08-19T08:10:46;25.50;99.90
13697;DHT22;6920;50.080;8.226;2022-08-19T08:13:14;25.50;99.90
13697;DHT22;6920;50.080;8.226;2022-08-19T08:15:41;25.10;99.90
13697;DHT22;6920;50.080;8.226;2022-08-19T08:18:13;25.00;99.90
13697;DHT22;6920;50.080;8.226;2022-08-19T08:20:41;25.10;99.90
13697;DHT22;6920;50.080;8.226;2022-08-19T08:23:13;25.10;99.90
13697;DHT22;6920;50.080;8.226;2022-08-19T08:25:56;25.10;99.90
13697;DHT22;6920;50.080;8.226;2022-08-19T08:28:25;24.90;99.90
13697;DHT22;6920;50.080;8.226;2022-08-19T08:33:26;24.60;99.90
13697;DHT22;6920;50.080;8.226;2022-08-19T08:35:55;24.30;99.90
13697;DHT22;6920;50.080;8.226;2022-08-19T08:38:24;24.50;99.90
13697;DHT22;6920;50.080;8.226;2022-08-19T08:40:55;24.40;99.90
13697;DHT22;6920;50.080;8.226;2022-08-19T08:43:34;24.50;99.90
13697;DHT22;6920;50.080;8.226;2022-08-19T08:46:06;24.40;99.90
13697;DHT22;6920;50.080;8.226;2022-08-19T08:48:40;24.60;99.90
13697;DHT22;6920;50.080;8.226;2022-08-19T08:51:12;24.70;99.90
13697;DHT22;6920;50.080;8.226;2022-08-19T08:53:45;24.90;99.90
13697;DHT22;6920;50.080;8.226;2022-08-19T08:56:17;25.20;99.90
13697;DHT22;6920;50.080;8.226;2022-08-19T08:58:50;25.10;99.90
13697;DHT22;6920;50.080;8.226;2022-08-19T09:01:18;25.20;99.90
13697;DHT22;6920;50.080;8.226;2022-08-19T09:06:24;25.60;99.90
13697;DHT22;6920;50.080;8.226;2022-08-19T09:12:25;26.20;99.90
13697;DHT22;6920;50.080;8.226;2022-08-19T09:15:05;26.10;99.90
13697;DHT22;6920;50.080;8.226;2022-08-19T09:17:35;26.00;99.90
13697;DHT22;6920;50.080;8.226;2022-08-19T09:20:14;25.70;99.90
13697;DHT22;6920;50.080;8.226;2022-08-19T09:22:51;25.70;99.90
13697;DHT22;6920;50.080;8.226;2022-08-19T09:25:22;26.30;99.90
13697;DHT22;6920;50.080;8.226;2022-08-19T09:27:54;26.60;99.90
13697;DHT22;6920;50.080;8.226;2022-08-19T09:30:26;26.90;99.90
13697;DHT22;6920;50.080;8.226;2022-08-19T09:32:56;27.10;99.90
13697;DHT22;6920;50.080;8.226;2022-08-19T09:35:26;26.90;99.90
13697;DHT22;6920;50.080;8.226;2022-08-19T09:37:55;26.90;99.90
13697;DHT22;6920;50.080;8.226;2022-08-19T09:40:26;26.90;99.90
13697;DHT22;6920;50.080;8.226;2022-08-19T09:43:05;27.10;99.90
13697;DHT22;6920;50.080;8.226;2022-08-19T09:45:35;26.90;99.90
13697;DHT22;6920;50.080;8.226;2022-08-19T09:48:02;27.10;99.90
13697;DHT22;6920;50.080;8.226;2022-08-19T09:50:33;27.20;99.90
13697;DHT22;6920;50.080;8.226;2022-08-19T09:53:04;27.50;99.90
13697;DHT22;6920;50.080;8.226;2022-08-19T09:55:40;27.80;99.90
13697;DHT22;6920;50.080;8.226;2022-08-19T09:58:15;27.60;99.90
13697;DHT22;6920;50.080;8.226;2022-08-19T10:00:43;27.70;99.90
13697;DHT22;6920;50.080;8.226;2022-08-19T10:03:12;27.90;99.90
13697;DHT22;6920;50.080;8.226;2022-08-19T10:05:39;28.10;99.90
13697;DHT22;6920;50.080;8.226;2022-08-19T10:08:18;28.40;99.90
13697;DHT22;6920;50.080;8.226;2022-08-19T10:10:47;28.40;99.90
13697;DHT22;6920;50.080;8.226;2022-08-19T10:13:19;28.20;99.90
13697;DHT22;6920;50.080;8.226;2022-08-19T10:15:51;27.70;99.90
13697;DHT22;6920;50.080;8.226;2022-08-19T10:18:21;27.70;99.90
13697;DHT22;6920;50.080;8.226;2022-08-19T10:20:50;27.90;99.90
13697;DHT22;6920;50.080;8.226;2022-08-19T10:23:18;28.10;99.90
13697;DHT22;6920;50.080;8.226;2022-08-19T10:25:45;28.50;99.90
13697;DHT22;6920;50.080;8.226;2022-08-19T10:28:14;28.60;99.90
13697;DHT22;6920;50.080;8.226;2022-08-19T10:30:42;28.20;99.90
13697;DHT22;6920;50.080;8.226;2022-08-19T10:33:09;28.20;99.90
13697;DHT22;6920;50.080;8.226;2022-08-19T10:35:37;28.70;99.90
13697;DHT22;6920;50.080;8.226;2022-08-19T10:40:31;28.80;99.90
13697;DHT22;6920;50.080;8.226;2022-08-19T10:42:58;28.80;99.90
13697;DHT22;6920;50.080;8.226;2022-08-19T10:45:27;28.70;99.90
13697;DHT22;6920;50.080;8.226;2022-08-19T10:47:54;28.80;99.90
13697;DHT22;6920;50.080;8.226;2022-08-19T10:50:21;28.60;99.90
13697;DHT22;6920;50.080;8.226;2022-08-19T10:53:08;28.80;99.90
13697;DHT22;6920;50.080;8.226;2022-08-19T10:55:35;28.70;99.90
13697;DHT22;6920;50.080;8.226;2022-08-19T10:58:20;28.80;99.60
13697;DHT22;6920;50.080;8.226;2022-08-19T11:00:54;29.00;98.90
13697;DHT22;6920;50.080;8.226;2022-08-19T11:03:22;29.10;97.60
13697;DHT22;6920;50.080;8.226;2022-08-19T11:05:58;29.00;97.80
13697;DHT22;6920;50.080;8.226;2022-08-19T11:08:25;29.10;97.70
13697;DHT22;6920;50.080;8.226;2022-08-19T11:10:55;29.30;97.10
13697;DHT22;6920;50.080;8.226;2022-08-19T11:13:27;29.30;97.00
13697;DHT22;6920;50.080;8.226;2022-08-19T11:15:59;29.30;97.10
13697;DHT22;6920;50.080;8.226;2022-08-19T11:18:27;29.50;97.00
13697;DHT22;6920;50.080;8.226;2022-08-19T11:21:05;30.00;96.30
13697;DHT22;6920;50.080;8.226;2022-08-19T11:23:32;29.80;96.70
13697;DHT22;6920;50.080;8.226;2022-08-19T11:25:59;29.90;96.40
13697;DHT22;6920;50.080;8.226;2022-08-19T11:28:29;29.80;96.50
13697;DHT22;6920;50.080;8.226;2022-08-19T11:30:57;30.20;96.40
13697;DHT22;6920;50.080;8.226;2022-08-19T11:33:24;29.90;95.40
13697;DHT22;6920;50.080;8.226;2022-08-19T11:35:52;30.00;95.40
13697;DHT22;6920;50.080;8.226;2022-08-19T11:38:19;29.90;95.10
13697;DHT22;6920;50.080;8.226;2022-08-19T11:40:54;30.00;94.80
13697;DHT22;6920;50.080;8.226;2022-08-19T11:43:21;29.80;95.40
13697;DHT22;6920;50.080;8.226;2022-08-19T11:48:17;30.00;94.50
13697;DHT22;6920;50.080;8.226;2022-08-19T11:53:15;30.10;94.30
13697;DHT22;6920;50.080;8.226;2022-08-19T11:55:42;30.10;94.30
13697;DHT22;6920;50.080;8.226;2022-08-19T11:58:10;30.10;95.10
13697;DHT22;6920;50.080;8.226;2022-08-19T12:00:38;30.20;94.50
13697;DHT22;6920;50.080;8.226;2022-08-19T12:03:05;30.00;94.30
13697;DHT22;6920;50.080;8.226;2022-08-19T12:06:00;30.10;94.30
13697;DHT22;6920;50.080;8.226;2022-08-19T12:08:31;30.10;94.40
13697;DHT22;6920;50.080;8.226;2022-08-19T12:11:00;30.10;94.50
13697;DHT22;6920;50.080;8.226;2022-08-19T12:13:28;29.70;94.30
13697;DHT22;6920;50.080;8.226;2022-08-19T12:15:57;29.90;94.40
13697;DHT22;6920;50.080;8.226;2022-08-19T12:18:27;29.90;94.70
13697;DHT22;6920;50.080;8.226;2022-08-19T12:20:55;29.50;94.80
13697;DHT22;6920;50.080;8.226;2022-08-19T12:23:22;29.90;94.90
13697;DHT22;6920;50.080;8.226;2022-08-19T12:25:50;30.20;94.30
13697;DHT22;6920;50.080;8.226;2022-08-19T12:28:18;30.30;94.40
13697;DHT22;6920;50.080;8.226;2022-08-19T12:30:45;30.40;93.80
13697;DHT22;6920;50.080;8.226;2022-08-19T12:33:13;30.40;94.10
13697;DHT22;6920;50.080;8.226;2022-08-19T12:35:42;29.60;93.90
13697;DHT22;6920;50.080;8.226;2022-08-19T12:38:28;29.50;94.40
13697;DHT22;6920;50.080;8.226;2022-08-19T12:40:55;29.40;94.10
13697;DHT22;6920;50.080;8.226;2022-08-19T12:43:22;29.80;93.60
13697;DHT22;6920;50.080;8.226;2022-08-19T12:45:49;29.90;94.00
13697;DHT22;6920;50.080;8.226;2022-08-19T12:48:17;30.30;93.40
13697;DHT22;6920;50.080;8.226;2022-08-19T12:50:45;30.40;93.40
13697;DHT22;6920;50.080;8.226;2022-08-19T12:53:12;30.40;92.40
13697;DHT22;6920;50.080;8.226;2022-08-19T12:55:41;30.60;92.30
13697;DHT22;6920;50.080;8.226;2022-08-19T12:58:14;31.00;92.40
13697;DHT22;6920;50.080;8.226;2022-08-19T13:03:10;31.00;91.90
13697;DHT22;6920;50.080;8.226;2022-08-19T13:05:37;30.90;92.00
13697;DHT22;6920;50.080;8.226;2022-08-19T13:10:34;29.70;93.40
13697;DHT22;6920;50.080;8.226;2022-08-19T13:13:05;29.50;93.40
13697;DHT22;6920;50.080;8.226;2022-08-19T13:15:34;30.00;93.10
13697;DHT22;6920;50.080;8.226;2022-08-19T13:18:02;30.40;92.50
13697;DHT22;6920;50.080;8.226;2022-08-19T13:20:30;30.80;92.00
13697;DHT22;6920;50.080;8.226;2022-08-19T13:22:57;31.20;91.60
13697;DHT22;6920;50.080;8.226;2022-08-19T13:25:24;30.50;92.50
13697;DHT22;6920;50.080;8.226;2022-08-19T13:27:52;30.10;93.20
13697;DHT22;6920;50.080;8.226;2022-08-19T13:30:22;29.40;93.70
13697;DHT22;6920;50.080;8.226;2022-08-19T13:33:07;29.00;94.20
13697;DHT22;6920;50.080;8.226;2022-08-19T13:35:38;29.40;93.70
13697;DHT22;6920;50.080;8.226;2022-08-19T13:38:06;29.80;93.20
13697;DHT22;6920;50.080;8.226;2022-08-19T13:40:33;30.10;92.30
13697;DHT22;6920;50.080;8.226;2022-08-19T13:43:01;30.30;92.10
13697;DHT22;6920;50.080;8.226;2022-08-19T13:45:32;30.40;92.30
13697;DHT22;6920;50.080;8.226;2022-08-19T13:48:01;30.40;92.50
13697;DHT22;6920;50.080;8.226;2022-08-19T13:50:32;30.50;92.60
13697;DHT22;6920;50.080;8.226;2022-08-19T13:53:00;30.30;92.50
13697;DHT22;6920;50.080;8.226;2022-08-19T13:55:28;30.00;92.30
13697;DHT22;6920;50.080;8.226;2022-08-19T13:57:57;30.10;91.40
13697;DHT22;6920;50.080;8.226;2022-08-19T14:00:26;30.50;90.90
13697;DHT22;6920;50.080;8.226;2022-08-19T14:02:57;30.60;90.30
13697;DHT22;6920;50.080;8.226;2022-08-19T14:05:26;30.60;90.50
13697;DHT22;6920;50.080;8.226;2022-08-19T14:07:54;30.90;90.90
13697;DHT22;6920;50.080;8.226;2022-08-19T14:10:27;31.10;90.80
13697;DHT22;6920;50.080;8.226;2022-08-19T14:12:57;30.20;91.30
13697;DHT22;6920;50.080;8.226;2022-08-19T14:15:34;29.70;91.60
13697;DHT22;6920;50.080;8.226;2022-08-19T14:18:04;29.50;91.80
13697;DHT22;6920;50.080;8.226;2022-08-19T14:20:35;29.60;92.00
13697;DHT22;6920;50.080;8.226;2022-08-19T14:23:03;30.00;91.00
13697;DHT22;6920;50.080;8.226;2022-08-19T14:25:32;30.50;90.80
13697;DHT22;6920;50.080;8.226;2022-08-19T14:28:00;30.40;90.50
13697;DHT22;6920;50.080;8.226;2022-08-19T14:30:30;30.40;90.70
13697;DHT22;6920;50.080;8.226;2022-08-19T14:32:58;30.00;90.80
13697;DHT22;6920;50.080;8.226;2022-08-19T14:35:29;29.80;91.10
13697;DHT22;6920;50.080;8.226;2022-08-19T14:37:58;30.10;90.50
13697;DHT22;6920;50.080;8.226;2022-08-19T14:40:26;30.50;90.70
13697;DHT22;6920;50.080;8.226;2022-08-19T14:42:54;30.20;90.50
13697;DHT22;6920;50.080;8.226;2022-08-19T14:45:25;30.30;90.80
13697;DHT22;6920;50.080;8.226;2022-08-19T14:50:20;29.70;90.70
13697;DHT22;6920;50.080;8.226;2022-08-19T14:52:49;29.70;90.90
13697;DHT22;6920;50.080;8.226;2022-08-19T15:00:13;29.40;91.40
13697;DHT22;6920;50.080;8.226;2022-08-19T15:05:10;29.70;90.90
13697;DHT22;6920;50.080;8.226;2022-08-19T15:07:38;29.60;90.10
13697;DHT22;6920;50.080;8.226;2022-08-19T15:10:09;29.50;90.50
13697;DHT22;6920;50.080;8.226;2022-08-19T15:12:38;29.70;90.50
13697;DHT22;6920;50.080;8.226;2022-08-19T15:15:06;29.90;90.30
13697;DHT22;6920;50.080;8.226;2022-08-19T15:17:34;30.10;90.20
13697;DHT22;6920;50.080;8.226;2022-08-19T15:20:03;30.20;90.40
13697;DHT22;6920;50.080;8.226;2022-08-19T15:22:30;29.90;90.30
13697;DHT22;6920;50.080;8.226;2022-08-19T15:24:58;30.10;90.60
13697;DHT22;6920;50.080;8.226;2022-08-19T15:27:26;29.80;90.60
13697;DHT22;6920;50.080;8.226;2022-08-19T15:32:22;29.80;90.90
13697;DHT22;6920;50.080;8.226;2022-08-19T15:34:51;29.90;90.60
13697;DHT22;6920;50.080;8.226;2022-08-19T15:37:19;30.00;90.60
13697;DHT22;6920;50.080;8.226;2022-08-19T15:42:15;30.10;90.80
13697;DHT22;6920;50.080;8.226;2022-08-19T15:44:43;29.80;90.70
13697;DHT22;6920;50.080;8.226;2022-08-19T15:47:40;29.50;90.80
13697;DHT22;6920;50.080;8.226;2022-08-19T15:50:09;29.20;91.10
13697;DHT22;6920;50.080;8.226;2022-08-19T15:52:43;29.20;91.30
13697;DHT22;6920;50.080;8.226;2022-08-19T15:55:10;29.00;91.40
13697;DHT22;6920;50.080;8.226;2022-08-19T15:57:37;28.90;91.50
13697;DHT22;6920;50.080;8.226;2022-08-19T16:00:26;28.80;91.60
13697;DHT22;6920;50.080;8.226;2022-08-19T16:03:13;28.60;91.60
13697;DHT22;6920;50.080;8.226;2022-08-19T16:06:00;28.70;91.70
13697;DHT22;6920;50.080;8.226;2022-08-19T16:08:44;28.70;91.60
13697;DHT22;6920;50.080;8.226;2022-08-19T16:11:17;28.80;91.90
13697;DHT22;6920;50.080;8.226;2022-08-19T16:13:45;28.70;91.90
13697;DHT22;6920;50.080;8.226;2022-08-19T16:16:14;28.60;92.00
13697;DHT22;6920;50.080;8.226;2022-08-19T16:18:42;28.50;92.00
13697;DHT22;6920;50.080;8.226;2022-08-19T16:21:13;28.60;92.00
13697;DHT22;6920;50.080;8.226;2022-08-19T16:23:42;28.60;91.80
13697;DHT22;6920;50.080;8.226;2022-08-19T16:28:37;28.50;91.80
13697;DHT22;6920;50.080;8.226;2022-08-19T16:31:05;28.60;92.10
13697;DHT22;6920;50.080;8.226;2022-08-19T16:33:33;28.50;92.10
13697;DHT22;6920;50.080;8.226;2022-08-19T16:38:30;28.30;92.30
13697;DHT22;6920;50.080;8.226;2022-08-19T16:40:58;28.20;92.10
13697;DHT22;6920;50.080;8.226;2022-08-19T16:43:28;28.20;92.30
13697;DHT22;6920;50.080;8.226;2022-08-19T16:45:55;28.10;92.20
13697;DHT22;6920;50.080;8.226;2022-08-19T16:48:26;28.10;92.30
13697;DHT22;6920;50.080;8.226;2022-08-19T16:50:56;28.00;92.20
13697;DHT22;6920;50.080;8.226;2022-08-19T16:53:25;28.10;92.00
13697;DHT22;6920;50.080;8.226;2022-08-19T16:55:54;28.10;91.60
13697;DHT22;6920;50.080;8.226;2022-08-19T16:58:22;28.10;92.00
13697;DHT22;6920;50.080;8.226;2022-08-19T17:00:51;28.00;92.00
13697;DHT22;6920;50.080;8.226;2022-08-19T17:03:18;27.90;92.00
13697;DHT22;6920;50.080;8.226;2022-08-19T17:05:51;27.90;92.30
13697;DHT22;6920;50.080;8.226;2022-08-19T17:08:21;27.80;92.40
13697;DHT22;6920;50.080;8.226;2022-08-19T17:10:51;27.70;92.40
13697;DHT22;6920;50.080;8.226;2022-08-19T17:15:46;27.60;92.60
13697;DHT22;6920;50.080;8.226;2022-08-19T17:18:14;27.60;92.90
13697;DHT22;6920;50.080;8.226;2022-08-19T17:20:43;27.60;92.30
13697;DHT22;6920;50.080;8.226;2022-08-19T17:23:11;27.50;92.60
13697;DHT22;6920;50.080;8.226;2022-08-19T17:25:41;27.40;92.90
13697;DHT22;6920;50.080;8.226;2022-08-19T17:28:10;27.40;92.70
13697;DHT22;6920;50.080;8.226;2022-08-19T17:30:37;27.40;92.70
13697;DHT22;6920;50.080;8.226;2022-08-19T17:33:06;27.30;92.90
13697;DHT22;6920;50.080;8.226;2022-08-19T17:35:34;27.20;92.90
13697;DHT22;6920;50.080;8.226;2022-08-19T17:38:03;27.20;92.90
13697;DHT22;6920;50.080;8.226;2022-08-19T17:40:30;26.50;92.90
13697;DHT22;6920;50.080;8.226;2022-08-19T17:42:58;27.10;93.10
13697;DHT22;6920;50.080;8.226;2022-08-19T17:45:25;27.00;93.60
13697;DHT22;6920;50.080;8.226;2022-08-19T17:47:53;26.90;93.50
13697;DHT22;6920;50.080;8.226;2022-08-19T17:50:34;27.00;93.50
13697;DHT22;6920;50.080;8.226;2022-08-19T17:53:02;27.00;93.90
13697;DHT22;6920;50.080;8.226;2022-08-19T17:55:30;26.90;93.80
13697;DHT22;6920;50.080;8.226;2022-08-19T17:58:00;26.80;94.00
13697;DHT22;6920;50.080;8.226;2022-08-19T18:00:30;26.80;94.00
13697;DHT22;6920;50.080;8.226;2022-08-19T18:03:00;26.80;94.20
13697;DHT22;6920;50.080;8.226;2022-08-19T18:05:30;26.70;94.30
13697;DHT22;6920;50.080;8.226;2022-08-19T18:07:58;26.70;94.40
13697;DHT22;6920;50.080;8.226;2022-08-19T18:10:30;26.60;94.40
13697;DHT22;6920;50.080;8.226;2022-08-19T18:13:00;26.50;94.40
13697;DHT22;6920;50.080;8.226;2022-08-19T18:15:27;26.40;94.50
13697;DHT22;6920;50.080;8.226;2022-08-19T18:17:54;26.40;94.60
13697;DHT22;6920;50.080;8.226;2022-08-19T18:20:22;26.40;94.70
13697;DHT22;6920;50.080;8.226;2022-08-19T18:22:49;26.20;94.70
13697;DHT22;6920;50.080;8.226;2022-08-19T18:25:34;26.20;94.70
13697;DHT22;6920;50.080;8.226;2022-08-19T18:28:05;26.20;94.80
13697;DHT22;6920;50.080;8.226;2022-08-19T18:30:37;26.10;94.90
13697;DHT22;6920;50.080;8.226;2022-08-19T18:33:06;26.10;95.20
13697;DHT22;6920;50.080;8.226;2022-08-19T18:35:41;25.90;95.20
13697;DHT22;6920;50.080;8.226;2022-08-19T18:38:11;25.90;95.10
13697;DHT22;6920;50.080;8.226;2022-08-19T18:46:27;25.70;95.90
13697;DHT22;6920;50.080;8.226;2022-08-19T18:49:13;25.60;95.80
13697;DHT22;6920;50.080;8.226;2022-08-19T18:51:42;25.50;96.20
13697;DHT22;6920;50.080;8.226;2022-08-19T18:54:11;25.50;96.20
13697;DHT22;6920;50.080;8.226;2022-08-19T18:59:15;25.40;96.50
13697;DHT22;6920;50.080;8.226;2022-08-19T19:01:46;25.30;96.60
13697;DHT22;6920;50.080;8.226;2022-08-19T19:04:17;25.30;96.80
13697;DHT22;6920;50.080;8.226;2022-08-19T19:06:44;25.20;96.70
13697;DHT22;6920;50.080;8.226;2022-08-19T19:09:14;25.20;97.10
13697;DHT22;6920;50.080;8.226;2022-08-19T19:11:44;25.10;97.40
13697;DHT22;6920;50.080;8.226;2022-08-19T19:14:16;25.00;97.40
13697;DHT22;6920;50.080;8.226;2022-08-19T19:16:46;25.10;97.50
13697;DHT22;6920;50.080;8.226;2022-08-19T19:19:15;25.00;97.70
13697;DHT22;6920;50.080;8.226;2022-08-19T19:24:14;24.90;97.90
13697;DHT22;6920;50.080;8.226;2022-08-19T19:26:42;24.90;98.20
13697;DHT22;6920;50.080;8.226;2022-08-19T19:29:16;24.90;98.60
13697;DHT22;6920;50.080;8.226;2022-08-19T19:31:45;24.80;98.70
13697;DHT22;6920;50.080;8.226;2022-08-19T19:34:16;24.60;98.70
13697;DHT22;6920;50.080;8.226;2022-08-19T19:36:45;24.60;99.00
13697;DHT22;6920;50.080;8.226;2022-08-19T19:39:13;24.60;98.80
13697;DHT22;6920;50.080;8.226;2022-08-19T19:49:27;24.60;99.70
13697;DHT22;6920;50.080;8.226;2022-08-19T19:57:00;24.60;99.80
13697;DHT22;6920;50.080;8.226;2022-08-19T20:01:57;24.50;99.80
13697;DHT22;6920;50.080;8.226;2022-08-19T20:06:53;24.50;99.90
13697;DHT22;6920;50.080;8.226;2022-08-19T20:09:20;24.50;99.90
13697;DHT22;6920;50.080;8.226;2022-08-19T20:14:17;24.50;99.90
13697;DHT22;6920;50.080;8.226;2022-08-19T20:16:47;24.40;99.90
13697;DHT22;6920;50.080;8.226;2022-08-19T20:19:17;24.40;99.90
13697;DHT22;6920;50.080;8.226;2022-08-19T20:21:45;24.40;99.90
13697;DHT22;6920;50.080;8.226;2022-08-19T20:24:15;24.40;99.90
13697;DHT22;6920;50.080;8.226;2022-08-19T20:26:46;24.30;99.90
13697;DHT22;6920;50.080;8.226;2022-08-19T20:31:45;24.40;99.90
13697;DHT22;6920;50.080;8.226;2022-08-19T20:34:13;24.30;99.90
13697;DHT22;6920;50.080;8.226;2022-08-19T20:36:42;24.30;99.90
13697;DHT22;6920;50.080;8.226;2022-08-19T20:39:15;24.30;99.90
13697;DHT22;6920;50.080;8.226;2022-08-19T20:41:43;24.20;99.90
13697;DHT22;6920;50.080;8.226;2022-08-19T20:44:11;24.20;99.90
13697;DHT22;6920;50.080;8.226;2022-08-19T20:46:42;24.20;99.90
13697;DHT22;6920;50.080;8.226;2022-08-19T20:49:13;24.10;99.90
13697;DHT22;6920;50.080;8.226;2022-08-19T20:51:43;24.10;99.90
13697;DHT22;6920;50.080;8.226;2022-08-19T20:56:40;24.10;99.90
13697;DHT22;6920;50.080;8.226;2022-08-19T20:59:08;24.10;99.90